Kimmirut Airport


Codes: CYLC/YLC
Name: Kimmirut Airport
City: Kimmirut
Country: Canada
Elevation: 175 ft.
Wikipedia:

Photos at Kimmirut Airport


   Photos courtesy of SpottingLog. You can add your own sightings and photos by signing up for a free trial today.



No photos found.

Weather at Kimmirut Airport


Time (UTC)DescriptionTempratureWindCloud coverageVisibilityPressureHumidity
23-May-2024 21:00Clear Sky-1°C2 mph, SW10%10000m1019hPa81%
24-May-2024 00:00Clear Sky-3°C0 mph, NE9%10000m1018hPa87%
24-May-2024 03:00Few Clouds-8°C4 mph, NE11%10000m1018hPa93%
24-May-2024 06:00Few Clouds-9°C4 mph, NE20%10000m1017hPa93%
24-May-2024 09:00Scattered Clouds-9°C4 mph, NE25%10000m1017hPa92%
24-May-2024 12:00Scattered Clouds-4°C2 mph, N29%10000m1017hPa87%
24-May-2024 15:00Few Clouds-2°C2 mph, NW15%10000m1016hPa83%
24-May-2024 18:00Few Clouds-1°C2 mph, W14%10000m1016hPa83%
24-May-2024 21:00Clear Sky0°C4 mph, NW9%10000m1017hPa87%
25-May-2024 00:00Few Clouds-3°C4 mph, NW12%10000m1017hPa91%
25-May-2024 03:00Few Clouds-7°C7 mph, N24%10000m1017hPa92%
25-May-2024 06:00Scattered Clouds-7°C4 mph, N46%10000m1017hPa90%
25-May-2024 09:00Broken Clouds-7°C4 mph, N70%10000m1017hPa87%
25-May-2024 12:00Scattered Clouds-3°C4 mph, N47%10000m1017hPa81%
25-May-2024 15:00Scattered Clouds-0°C4 mph, NW27%10000m1017hPa83%
25-May-2024 18:00Scattered Clouds0°C4 mph, NW40%10000m1016hPa92%
25-May-2024 21:00Scattered Clouds0°C4 mph, NW44%10000m1016hPa93%
26-May-2024 00:00Scattered Clouds0°C7 mph, NW49%10000m1015hPa92%
26-May-2024 03:00Overcast Clouds-3°C4 mph, NW100%10000m1015hPa95%
26-May-2024 06:00Overcast Clouds-5°C2 mph, N91%10000m1014hPa96%
26-May-2024 09:00Overcast Clouds-3°C2 mph, SE100%10000m1012hPa94%
26-May-2024 12:00Overcast Clouds-1°C7 mph, S100%10000m1010hPa94%
26-May-2024 15:00Light Snow-0°C9 mph, S100%7362m1009hPa95%
26-May-2024 18:00Light Snow0°C7 mph, W100%146m1008hPa99%
26-May-2024 21:00Light Snow0°C13 mph, W95%8482m1008hPa97%
27-May-2024 00:00Overcast Clouds-0°C13 mph, NW97%10000m1009hPa93%
27-May-2024 03:00Overcast Clouds-2°C11 mph, NW100%8566m1009hPa95%
27-May-2024 06:00Overcast Clouds-2°C11 mph, NW100%10000m1009hPa90%
27-May-2024 09:00Broken Clouds-5°C11 mph, NW81%10000m1010hPa93%
27-May-2024 12:00Broken Clouds-3°C18 mph, NW73%10000m1010hPa89%
27-May-2024 15:00Broken Clouds-1°C16 mph, NW71%10000m1011hPa85%
27-May-2024 18:00Broken Clouds-0°C13 mph, NW76%10000m1011hPa85%
27-May-2024 21:00Overcast Clouds-1°C11 mph, W100%10000m1012hPa86%
28-May-2024 00:00Overcast Clouds-3°C4 mph, SW100%10000m1011hPa95%
28-May-2024 03:00Overcast Clouds-2°C4 mph, SE100%10000m1011hPa94%
28-May-2024 06:00Light Snow-2°C7 mph, SE100%584m1010hPa94%
28-May-2024 09:00Light Snow-3°C7 mph, SE100%3096m1010hPa96%
28-May-2024 12:00Light Snow-1°C9 mph, SE100%10000m1010hPa91%
28-May-2024 15:00Overcast Clouds-0°C9 mph, S97%10000m1011hPa91%
28-May-2024 18:00Overcast Clouds0°C2 mph, SE88%10000m1011hPa91%